sensor_id;sensor_type;location;lat;lon;timestamp;temperature;humidity
3684;DHT22;1858;48.716;9.648;2022-07-29T00:01:07;18.30;1.00
3684;DHT22;1858;48.716;9.648;2022-07-29T00:03:34;18.40;1.00
3684;DHT22;1858;48.716;9.648;2022-07-29T00:06:08;18.30;1.00
3684;DHT22;1858;48.716;9.648;2022-07-29T00:08:35;18.40;1.00
3684;DHT22;1858;48.716;9.648;2022-07-29T00:11:02;18.50;1.00
3684;DHT22;1858;48.716;9.648;2022-07-29T00:13:29;18.50;1.00
3684;DHT22;1858;48.716;9.648;2022-07-29T00:15:56;18.60;1.00
3684;DHT22;1858;48.716;9.648;2022-07-29T00:18:23;18.60;1.00
3684;DHT22;1858;48.716;9.648;2022-07-29T00:20:56;18.60;1.00
3684;DHT22;1858;48.716;9.648;2022-07-29T00:23:23;18.50;1.00
3684;DHT22;1858;48.716;9.648;2022-07-29T00:25:50;18.50;1.00
3684;DHT22;1858;48.716;9.648;2022-07-29T00:28:17;18.60;1.00
3684;DHT22;1858;48.716;9.648;2022-07-29T00:30:44;18.60;1.00
3684;DHT22;1858;48.716;9.648;2022-07-29T00:33:11;18.60;1.00
3684;DHT22;1858;48.716;9.648;2022-07-29T00:35:37;18.60;1.00
3684;DHT22;1858;48.716;9.648;2022-07-29T00:38:14;18.60;1.00
3684;DHT22;1858;48.716;9.648;2022-07-29T00:40:42;18.60;1.00
3684;DHT22;1858;48.716;9.648;2022-07-29T00:43:10;18.60;1.00
3684;DHT22;1858;48.716;9.648;2022-07-29T00:45:37;18.60;1.00
3684;DHT22;1858;48.716;9.648;2022-07-29T00:48:04;18.60;1.00
3684;DHT22;1858;48.716;9.648;2022-07-29T00:50:32;18.60;1.00
3684;DHT22;1858;48.716;9.648;2022-07-29T00:52:59;18.60;1.00
3684;DHT22;1858;48.716;9.648;2022-07-29T00:55:26;18.60;1.00
3684;DHT22;1858;48.716;9.648;2022-07-29T00:57:53;18.60;1.00
3684;DHT22;1858;48.716;9.648;2022-07-29T01:00:23;18.50;1.00
3684;DHT22;1858;48.716;9.648;2022-07-29T01:02:50;18.60;1.00
3684;DHT22;1858;48.716;9.648;2022-07-29T01:05:18;18.60;1.00
3684;DHT22;1858;48.716;9.648;2022-07-29T01:07:53;18.60;1.00
3684;DHT22;1858;48.716;9.648;2022-07-29T01:10:20;18.60;1.00
3684;DHT22;1858;48.716;9.648;2022-07-29T01:12:48;18.60;1.00
3684;DHT22;1858;48.716;9.648;2022-07-29T01:15:16;18.50;1.00
3684;DHT22;1858;48.716;9.648;2022-07-29T01:17:49;18.50;1.00
3684;DHT22;1858;48.716;9.648;2022-07-29T01:30:39;18.60;1.00
3684;DHT22;1858;48.716;9.648;2022-07-29T01:33:10;18.60;1.00
3684;DHT22;1858;48.716;9.648;2022-07-29T01:35:39;18.50;1.00
3684;DHT22;1858;48.716;9.648;2022-07-29T01:38:41;18.40;1.00
3684;DHT22;1858;48.716;9.648;2022-07-29T01:41:02;18.40;1.00
3684;DHT22;1858;48.716;9.648;2022-07-29T01:43:14;18.40;1.00
3684;DHT22;1858;48.716;9.648;2022-07-29T01:45:42;18.30;1.00
3684;DHT22;1858;48.716;9.648;2022-07-29T01:50:49;18.20;1.00
3684;DHT22;1858;48.716;9.648;2022-07-29T01:53:11;18.20;1.00
3684;DHT22;1858;48.716;9.648;2022-07-29T01:55:40;18.10;1.00
3684;DHT22;1858;48.716;9.648;2022-07-29T01:58:07;18.10;1.00
3684;DHT22;1858;48.716;9.648;2022-07-29T02:00:35;18.00;1.00
3684;DHT22;1858;48.716;9.648;2022-07-29T02:03:04;17.90;1.00
3684;DHT22;1858;48.716;9.648;2022-07-29T02:05:31;17.80;1.00
3684;DHT22;1858;48.716;9.648;2022-07-29T02:07:59;17.60;1.00
3684;DHT22;1858;48.716;9.648;2022-07-29T02:10:33;17.60;1.00
3684;DHT22;1858;48.716;9.648;2022-07-29T02:13:01;17.60;1.00
3684;DHT22;1858;48.716;9.648;2022-07-29T02:15:29;17.70;1.00
3684;DHT22;1858;48.716;9.648;2022-07-29T02:18:01;17.70;1.00
3684;DHT22;1858;48.716;9.648;2022-07-29T02:20:28;17.70;1.00
3684;DHT22;1858;48.716;9.648;2022-07-29T02:22:55;17.70;1.00
3684;DHT22;1858;48.716;9.648;2022-07-29T02:25:23;17.50;1.00
3684;DHT22;1858;48.716;9.648;2022-07-29T02:27:51;17.50;1.00
3684;DHT22;1858;48.716;9.648;2022-07-29T02:30:19;17.50;1.00
3684;DHT22;1858;48.716;9.648;2022-07-29T02:32:46;17.50;1.00
3684;DHT22;1858;48.716;9.648;2022-07-29T02:35:15;17.60;1.00
3684;DHT22;1858;48.716;9.648;2022-07-29T02:37:43;17.60;1.00
3684;DHT22;1858;48.716;9.648;2022-07-29T02:40:11;17.60;1.00
3684;DHT22;1858;48.716;9.648;2022-07-29T02:42:41;17.70;1.00
3684;DHT22;1858;48.716;9.648;2022-07-29T02:45:08;17.50;1.00
3684;DHT22;1858;48.716;9.648;2022-07-29T02:47:36;17.40;1.00
3684;DHT22;1858;48.716;9.648;2022-07-29T02:50:06;17.40;1.00
3684;DHT22;1858;48.716;9.648;2022-07-29T02:52:44;17.30;1.00
3684;DHT22;1858;48.716;9.648;2022-07-29T02:55:11;17.20;1.00
3684;DHT22;1858;48.716;9.648;2022-07-29T02:57:52;17.10;1.00
3684;DHT22;1858;48.716;9.648;2022-07-29T03:00:19;17.10;1.00
3684;DHT22;1858;48.716;9.648;2022-07-29T03:02:50;17.20;1.00
3684;DHT22;1858;48.716;9.648;2022-07-29T03:05:17;17.10;1.00
3684;DHT22;1858;48.716;9.648;2022-07-29T03:07:51;17.10;1.00
3684;DHT22;1858;48.716;9.648;2022-07-29T03:10:13;17.10;1.00
3684;DHT22;1858;48.716;9.648;2022-07-29T03:12:46;17.10;1.00
3684;DHT22;1858;48.716;9.648;2022-07-29T03:15:13;17.00;1.00
3684;DHT22;1858;48.716;9.648;2022-07-29T03:17:40;16.90;1.00
3684;DHT22;1858;48.716;9.648;2022-07-29T03:20:09;17.00;1.00
3684;DHT22;1858;48.716;9.648;2022-07-29T03:22:40;17.00;1.00
3684;DHT22;1858;48.716;9.648;2022-07-29T03:25:18;17.00;1.00
3684;DHT22;1858;48.716;9.648;2022-07-29T03:27:45;16.80;1.00
3684;DHT22;1858;48.716;9.648;2022-07-29T03:30:13;16.80;1.00
3684;DHT22;1858;48.716;9.648;2022-07-29T03:32:40;16.70;1.00
3684;DHT22;1858;48.716;9.648;2022-07-29T03:35:07;16.60;1.00
3684;DHT22;1858;48.716;9.648;2022-07-29T03:37:34;16.60;1.00
3684;DHT22;1858;48.716;9.648;2022-07-29T03:40:03;16.70;1.00
3684;DHT22;1858;48.716;9.648;2022-07-29T03:42:31;16.80;1.00
3684;DHT22;1858;48.716;9.648;2022-07-29T03:45:00;16.80;1.00
3684;DHT22;1858;48.716;9.648;2022-07-29T03:47:27;16.70;1.00
3684;DHT22;1858;48.716;9.648;2022-07-29T03:50:00;16.80;1.00
3684;DHT22;1858;48.716;9.648;2022-07-29T03:52:23;16.80;1.00
3684;DHT22;1858;48.716;9.648;2022-07-29T03:54:50;16.70;1.00
3684;DHT22;1858;48.716;9.648;2022-07-29T03:57:18;16.70;1.00
3684;DHT22;1858;48.716;9.648;2022-07-29T03:59:45;16.60;1.00
3684;DHT22;1858;48.716;9.648;2022-07-29T04:02:12;16.60;1.00
3684;DHT22;1858;48.716;9.648;2022-07-29T04:04:39;16.60;1.00
3684;DHT22;1858;48.716;9.648;2022-07-29T04:07:06;16.70;1.00
3684;DHT22;1858;48.716;9.648;2022-07-29T04:09:33;16.70;1.00
3684;DHT22;1858;48.716;9.648;2022-07-29T04:12:00;16.60;1.00
3684;DHT22;1858;48.716;9.648;2022-07-29T04:14:27;16.60;1.00
3684;DHT22;1858;48.716;9.648;2022-07-29T04:16:54;16.60;1.00
3684;DHT22;1858;48.716;9.648;2022-07-29T04:19:21;16.60;1.00
3684;DHT22;1858;48.716;9.648;2022-07-29T04:21:48;16.60;1.00
3684;DHT22;1858;48.716;9.648;2022-07-29T04:24:15;16.60;1.00
3684;DHT22;1858;48.716;9.648;2022-07-29T04:26:49;16.70;1.00
3684;DHT22;1858;48.716;9.648;2022-07-29T04:29:16;16.70;1.00
3684;DHT22;1858;48.716;9.648;2022-07-29T04:31:43;16.70;1.00
3684;DHT22;1858;48.716;9.648;2022-07-29T04:34:10;16.70;1.00
3684;DHT22;1858;48.716;9.648;2022-07-29T04:36:37;16.70;1.00
3684;DHT22;1858;48.716;9.648;2022-07-29T04:39:04;16.70;1.00
3684;DHT22;1858;48.716;9.648;2022-07-29T04:41:31;16.80;1.00
3684;DHT22;1858;48.716;9.648;2022-07-29T04:43:58;16.80;1.00
3684;DHT22;1858;48.716;9.648;2022-07-29T04:46:26;16.90;1.00
3684;DHT22;1858;48.716;9.648;2022-07-29T04:48:55;16.90;1.00
3684;DHT22;1858;48.716;9.648;2022-07-29T04:51:22;16.90;1.00
3684;DHT22;1858;48.716;9.648;2022-07-29T04:53:49;17.00;1.00
3684;DHT22;1858;48.716;9.648;2022-07-29T04:56:15;17.10;1.00
3684;DHT22;1858;48.716;9.648;2022-07-29T04:58:42;17.20;1.00
3684;DHT22;1858;48.716;9.648;2022-07-29T05:01:09;17.30;1.00
3684;DHT22;1858;48.716;9.648;2022-07-29T05:03:36;17.40;1.00
3684;DHT22;1858;48.716;9.648;2022-07-29T05:06:03;17.60;1.00
3684;DHT22;1858;48.716;9.648;2022-07-29T05:08:30;17.50;1.00
3684;DHT22;1858;48.716;9.648;2022-07-29T05:10:57;17.60;1.00
3684;DHT22;1858;48.716;9.648;2022-07-29T05:13:24;17.60;1.00
3684;DHT22;1858;48.716;9.648;2022-07-29T05:15:57;17.60;1.00
3684;DHT22;1858;48.716;9.648;2022-07-29T05:18:24;17.70;1.00
3684;DHT22;1858;48.716;9.648;2022-07-29T05:20:51;17.90;1.00
3684;DHT22;1858;48.716;9.648;2022-07-29T05:23:18;17.90;1.00
3684;DHT22;1858;48.716;9.648;2022-07-29T05:25:45;17.90;1.00
3684;DHT22;1858;48.716;9.648;2022-07-29T05:28:12;17.90;1.00
3684;DHT22;1858;48.716;9.648;2022-07-29T05:30:39;18.00;1.00
3684;DHT22;1858;48.716;9.648;2022-07-29T05:33:06;18.00;1.00
3684;DHT22;1858;48.716;9.648;2022-07-29T05:35:33;18.00;1.00
3684;DHT22;1858;48.716;9.648;2022-07-29T05:38:00;18.20;1.00
3684;DHT22;1858;48.716;9.648;2022-07-29T05:40:27;18.40;1.00
3684;DHT22;1858;48.716;9.648;2022-07-29T05:42:54;18.50;1.00
3684;DHT22;1858;48.716;9.648;2022-07-29T05:45:21;18.70;1.00
3684;DHT22;1858;48.716;9.648;2022-07-29T05:47:50;18.90;1.00
3684;DHT22;1858;48.716;9.648;2022-07-29T05:50:17;19.10;1.00
3684;DHT22;1858;48.716;9.648;2022-07-29T05:52:44;19.20;1.00
3684;DHT22;1858;48.716;9.648;2022-07-29T05:55:11;19.30;99.90
3684;DHT22;1858;48.716;9.648;2022-07-29T05:57:38;19.30;99.90
3684;DHT22;1858;48.716;9.648;2022-07-29T06:00:05;19.40;99.90
3684;DHT22;1858;48.716;9.648;2022-07-29T06:02:32;19.40;99.90
3684;DHT22;1858;48.716;9.648;2022-07-29T06:04:59;19.40;70.30
3684;DHT22;1858;48.716;9.648;2022-07-29T06:07:26;19.40;78.00
3684;DHT22;1858;48.716;9.648;2022-07-29T06:09:53;19.30;26.80
3684;DHT22;1858;48.716;9.648;2022-07-29T06:12:20;19.40;99.90
3684;DHT22;1858;48.716;9.648;2022-07-29T06:14:47;19.40;99.90
3684;DHT22;1858;48.716;9.648;2022-07-29T06:17:23;19.50;99.90
3684;DHT22;1858;48.716;9.648;2022-07-29T06:19:51;19.70;99.90
3684;DHT22;1858;48.716;9.648;2022-07-29T06:22:18;19.80;1.00
3684;DHT22;1858;48.716;9.648;2022-07-29T06:24:45;20.00;1.00
3684;DHT22;1858;48.716;9.648;2022-07-29T06:27:12;20.20;1.00
3684;DHT22;1858;48.716;9.648;2022-07-29T06:29:39;20.40;1.00
3684;DHT22;1858;48.716;9.648;2022-07-29T06:32:06;20.60;99.90
3684;DHT22;1858;48.716;9.648;2022-07-29T06:34:35;20.70;1.00
3684;DHT22;1858;48.716;9.648;2022-07-29T06:37:06;20.90;1.00
3684;DHT22;1858;48.716;9.648;2022-07-29T06:39:34;20.90;1.00
3684;DHT22;1858;48.716;9.648;2022-07-29T06:42:03;20.90;1.00
3684;DHT22;1858;48.716;9.648;2022-07-29T06:44:33;20.90;1.00
3684;DHT22;1858;48.716;9.648;2022-07-29T06:47:00;21.40;1.00
3684;DHT22;1858;48.716;9.648;2022-07-29T06:49:27;21.90;99.90
3684;DHT22;1858;48.716;9.648;2022-07-29T06:51:55;22.70;99.90
3684;DHT22;1858;48.716;9.648;2022-07-29T06:54:21;24.20;99.90
3684;DHT22;1858;48.716;9.648;2022-07-29T06:56:48;26.00;99.90
3684;DHT22;1858;48.716;9.648;2022-07-29T06:59:15;27.50;99.90
3684;DHT22;1858;48.716;9.648;2022-07-29T07:01:42;29.10;1.00
3684;DHT22;1858;48.716;9.648;2022-07-29T07:04:09;29.90;1.00
3684;DHT22;1858;48.716;9.648;2022-07-29T07:09:23;31.00;1.00
3684;DHT22;1858;48.716;9.648;2022-07-29T07:11:50;32.00;1.00
3684;DHT22;1858;48.716;9.648;2022-07-29T07:14:17;33.00;1.00
3684;DHT22;1858;48.716;9.648;2022-07-29T07:16:44;33.70;1.00
3684;DHT22;1858;48.716;9.648;2022-07-29T07:19:17;34.00;1.00
3684;DHT22;1858;48.716;9.648;2022-07-29T07:21:45;34.70;1.00
3684;DHT22;1858;48.716;9.648;2022-07-29T07:24:12;35.50;1.00
3684;DHT22;1858;48.716;9.648;2022-07-29T07:26:39;35.90;1.00
3684;DHT22;1858;48.716;9.648;2022-07-29T07:29:05;36.30;99.90
3684;DHT22;1858;48.716;9.648;2022-07-29T07:31:32;36.70;99.90
3684;DHT22;1858;48.716;9.648;2022-07-29T07:33:59;37.40;99.90
3684;DHT22;1858;48.716;9.648;2022-07-29T07:36:26;37.80;99.90
3684;DHT22;1858;48.716;9.648;2022-07-29T07:38:53;38.00;99.90
3684;DHT22;1858;48.716;9.648;2022-07-29T07:41:20;37.70;99.90
3684;DHT22;1858;48.716;9.648;2022-07-29T07:43:48;37.10;99.90
3684;DHT22;1858;48.716;9.648;2022-07-29T07:46:15;37.00;99.90
3684;DHT22;1858;48.716;9.648;2022-07-29T07:48:42;37.30;99.90
3684;DHT22;1858;48.716;9.648;2022-07-29T07:51:09;37.20;99.90
3684;DHT22;1858;48.716;9.648;2022-07-29T07:53:36;37.10;99.90
3684;DHT22;1858;48.716;9.648;2022-07-29T07:56:03;37.80;99.90
3684;DHT22;1858;48.716;9.648;2022-07-29T07:58:31;38.10;99.90
3684;DHT22;1858;48.716;9.648;2022-07-29T08:00:58;37.90;99.90
3684;DHT22;1858;48.716;9.648;2022-07-29T08:03:25;37.00;99.90
3684;DHT22;1858;48.716;9.648;2022-07-29T08:05:52;35.60;99.90
3684;DHT22;1858;48.716;9.648;2022-07-29T08:08:20;34.80;99.90
3684;DHT22;1858;48.716;9.648;2022-07-29T08:10:47;34.00;99.90
3684;DHT22;1858;48.716;9.648;2022-07-29T08:13:22;34.10;99.90
3684;DHT22;1858;48.716;9.648;2022-07-29T08:15:51;35.30;99.90
3684;DHT22;1858;48.716;9.648;2022-07-29T08:18:19;35.60;99.90
3684;DHT22;1858;48.716;9.648;2022-07-29T08:20:55;36.40;99.90
3684;DHT22;1858;48.716;9.648;2022-07-29T08:23:22;36.70;99.90
3684;DHT22;1858;48.716;9.648;2022-07-29T08:25:49;37.30;99.90
3684;DHT22;1858;48.716;9.648;2022-07-29T08:28:16;37.80;99.90
3684;DHT22;1858;48.716;9.648;2022-07-29T08:30:43;38.60;99.90
3684;DHT22;1858;48.716;9.648;2022-07-29T08:33:10;39.60;99.90
3684;DHT22;1858;48.716;9.648;2022-07-29T08:35:38;40.30;99.90
3684;DHT22;1858;48.716;9.648;2022-07-29T08:38:05;41.00;99.90
3684;DHT22;1858;48.716;9.648;2022-07-29T08:40:32;41.80;99.90
3684;DHT22;1858;48.716;9.648;2022-07-29T08:43:03;42.30;99.90
3684;DHT22;1858;48.716;9.648;2022-07-29T08:45:27;42.00;99.90
3684;DHT22;1858;48.716;9.648;2022-07-29T08:47:54;42.00;99.90
3684;DHT22;1858;48.716;9.648;2022-07-29T08:50:21;42.10;99.90
3684;DHT22;1858;48.716;9.648;2022-07-29T08:52:48;42.10;99.90
3684;DHT22;1858;48.716;9.648;2022-07-29T08:55:16;42.60;99.90
3684;DHT22;1858;48.716;9.648;2022-07-29T08:57:43;42.90;99.90
3684;DHT22;1858;48.716;9.648;2022-07-29T09:00:11;43.00;99.90
3684;DHT22;1858;48.716;9.648;2022-07-29T09:02:41;43.00;99.90
3684;DHT22;1858;48.716;9.648;2022-07-29T09:05:09;42.70;99.90
3684;DHT22;1858;48.716;9.648;2022-07-29T09:07:36;42.80;99.90
3684;DHT22;1858;48.716;9.648;2022-07-29T09:10:03;43.30;99.90
3684;DHT22;1858;48.716;9.648;2022-07-29T09:12:30;43.40;99.90
3684;DHT22;1858;48.716;9.648;2022-07-29T09:14:57;43.10;99.90
3684;DHT22;1858;48.716;9.648;2022-07-29T09:17:43;43.00;99.90
3684;DHT22;1858;48.716;9.648;2022-07-29T09:20:30;43.40;99.90
3684;DHT22;1858;48.716;9.648;2022-07-29T09:23:22;44.20;99.90
3684;DHT22;1858;48.716;9.648;2022-07-29T09:25:49;44.70;99.90
3684;DHT22;1858;48.716;9.648;2022-07-29T09:28:16;45.00;99.90
3684;DHT22;1858;48.716;9.648;2022-07-29T09:30:50;45.00;99.90
3684;DHT22;1858;48.716;9.648;2022-07-29T09:33:18;45.40;99.90
3684;DHT22;1858;48.716;9.648;2022-07-29T09:35:45;45.20;99.90
3684;DHT22;1858;48.716;9.648;2022-07-29T09:38:13;45.50;99.90
3684;DHT22;1858;48.716;9.648;2022-07-29T09:40:40;45.60;99.90
3684;DHT22;1858;48.716;9.648;2022-07-29T09:43:12;46.30;99.90
3684;DHT22;1858;48.716;9.648;2022-07-29T09:45:40;46.50;99.90
3684;DHT22;1858;48.716;9.648;2022-07-29T09:48:21;46.40;99.90
3684;DHT22;1858;48.716;9.648;2022-07-29T09:50:44;46.30;99.90
3684;DHT22;1858;48.716;9.648;2022-07-29T09:53:17;46.00;99.90
3684;DHT22;1858;48.716;9.648;2022-07-29T09:58:27;45.60;99.90
3684;DHT22;1858;48.716;9.648;2022-07-29T10:00:54;45.20;99.90
3684;DHT22;1858;48.716;9.648;2022-07-29T10:03:22;44.90;99.90
3684;DHT22;1858;48.716;9.648;2022-07-29T10:06:05;44.90;99.90
3684;DHT22;1858;48.716;9.648;2022-07-29T10:08:32;44.30;99.90
3684;DHT22;1858;48.716;9.648;2022-07-29T10:11:09;43.60;99.90
3684;DHT22;1858;48.716;9.648;2022-07-29T10:13:36;42.90;99.90
3684;DHT22;1858;48.716;9.648;2022-07-29T10:16:04;42.20;99.90
3684;DHT22;1858;48.716;9.648;2022-07-29T10:18:32;41.60;99.90
3684;DHT22;1858;48.716;9.648;2022-07-29T10:21:00;41.30;99.90
3684;DHT22;1858;48.716;9.648;2022-07-29T10:23:28;41.40;99.90
3684;DHT22;1858;48.716;9.648;2022-07-29T10:26:07;41.60;99.90
3684;DHT22;1858;48.716;9.648;2022-07-29T10:28:30;41.80;99.90
3684;DHT22;1858;48.716;9.648;2022-07-29T10:31:03;42.00;99.90
3684;DHT22;1858;48.716;9.648;2022-07-29T10:38:49;42.20;99.90
3684;DHT22;1858;48.716;9.648;2022-07-29T10:44:01;42.90;99.90
3684;DHT22;1858;48.716;9.648;2022-07-29T10:46:28;43.40;99.90
3684;DHT22;1858;48.716;9.648;2022-07-29T10:49:17;43.20;99.90
3684;DHT22;1858;48.716;9.648;2022-07-29T10:56:47;40.50;99.90
3684;DHT22;1858;48.716;9.648;2022-07-29T11:01:50;38.90;99.90
3684;DHT22;1858;48.716;9.648;2022-07-29T11:09:42;36.90;99.90
3684;DHT22;1858;48.716;9.648;2022-07-29T11:17:24;35.90;99.90
3684;DHT22;1858;48.716;9.648;2022-07-29T11:19:51;35.70;99.90
3684;DHT22;1858;48.716;9.648;2022-07-29T11:22:34;35.60;99.90
3684;DHT22;1858;48.716;9.648;2022-07-29T11:25:15;35.40;99.90
3684;DHT22;1858;48.716;9.648;2022-07-29T11:27:51;35.10;99.90
3684;DHT22;1858;48.716;9.648;2022-07-29T11:30:18;34.90;99.90
3684;DHT22;1858;48.716;9.648;2022-07-29T11:32:45;34.70;99.90
3684;DHT22;1858;48.716;9.648;2022-07-29T11:35:19;34.60;99.90
3684;DHT22;1858;48.716;9.648;2022-07-29T11:38:34;34.50;99.90
3684;DHT22;1858;48.716;9.648;2022-07-29T11:40:16;34.20;99.90
3684;DHT22;1858;48.716;9.648;2022-07-29T11:42:43;33.90;99.90
3684;DHT22;1858;48.716;9.648;2022-07-29T11:45:16;33.40;99.90
3684;DHT22;1858;48.716;9.648;2022-07-29T11:47:47;33.20;99.90
3684;DHT22;1858;48.716;9.648;2022-07-29T11:50:35;33.00;99.90
3684;DHT22;1858;48.716;9.648;2022-07-29T11:53:11;32.60;99.90
3684;DHT22;1858;48.716;9.648;2022-07-29T11:55:40;32.30;99.90
3684;DHT22;1858;48.716;9.648;2022-07-29T12:01:04;31.80;99.90
3684;DHT22;1858;48.716;9.648;2022-07-29T12:03:32;31.50;99.90
3684;DHT22;1858;48.716;9.648;2022-07-29T12:06:01;31.20;99.90
3684;DHT22;1858;48.716;9.648;2022-07-29T12:08:29;31.20;99.90
3684;DHT22;1858;48.716;9.648;2022-07-29T12:10:57;31.10;99.90
3684;DHT22;1858;48.716;9.648;2022-07-29T12:13:24;30.90;99.90
3684;DHT22;1858;48.716;9.648;2022-07-29T12:15:55;30.60;99.90
3684;DHT22;1858;48.716;9.648;2022-07-29T12:18:23;30.30;99.90
3684;DHT22;1858;48.716;9.648;2022-07-29T12:20:56;30.10;99.90
3684;DHT22;1858;48.716;9.648;2022-07-29T12:26:10;29.90;99.90
3684;DHT22;1858;48.716;9.648;2022-07-29T12:28:44;30.00;99.90
3684;DHT22;1858;48.716;9.648;2022-07-29T12:31:14;30.10;99.90
3684;DHT22;1858;48.716;9.648;2022-07-29T12:33:42;30.40;99.90
3684;DHT22;1858;48.716;9.648;2022-07-29T12:36:09;30.40;99.90
3684;DHT22;1858;48.716;9.648;2022-07-29T12:38:37;30.30;99.90
3684;DHT22;1858;48.716;9.648;2022-07-29T12:41:06;30.10;99.90
3684;DHT22;1858;48.716;9.648;2022-07-29T12:43:34;30.10;99.90
3684;DHT22;1858;48.716;9.648;2022-07-29T12:46:11;30.10;99.90
3684;DHT22;1858;48.716;9.648;2022-07-29T12:48:38;29.90;99.90
3684;DHT22;1858;48.716;9.648;2022-07-29T12:51:02;29.60;1.00
3684;DHT22;1858;48.716;9.648;2022-07-29T12:53:30;29.50;99.90
3684;DHT22;1858;48.716;9.648;2022-07-29T12:55:58;29.40;99.90
3684;DHT22;1858;48.716;9.648;2022-07-29T12:58:28;29.30;99.90
3684;DHT22;1858;48.716;9.648;2022-07-29T13:11:35;28.80;99.90
3684;DHT22;1858;48.716;9.648;2022-07-29T13:14:03;28.80;99.90
3684;DHT22;1858;48.716;9.648;2022-07-29T13:16:30;28.80;99.90
3684;DHT22;1858;48.716;9.648;2022-07-29T13:19:11;28.80;99.90
3684;DHT22;1858;48.716;9.648;2022-07-29T13:21:35;28.60;99.90
3684;DHT22;1858;48.716;9.648;2022-07-29T13:24:09;28.30;99.90
3684;DHT22;1858;48.716;9.648;2022-07-29T13:26:39;28.00;99.90
3684;DHT22;1858;48.716;9.648;2022-07-29T13:29:06;27.80;99.90
3684;DHT22;1858;48.716;9.648;2022-07-29T13:31:33;27.60;99.90
3684;DHT22;1858;48.716;9.648;2022-07-29T13:34:00;27.40;1.00
3684;DHT22;1858;48.716;9.648;2022-07-29T13:36:27;27.30;1.00
3684;DHT22;1858;48.716;9.648;2022-07-29T13:38:54;27.10;1.00
3684;DHT22;1858;48.716;9.648;2022-07-29T13:41:21;27.00;1.00
3684;DHT22;1858;48.716;9.648;2022-07-29T13:43:48;26.90;1.00
3684;DHT22;1858;48.716;9.648;2022-07-29T13:46:15;26.80;1.00
3684;DHT22;1858;48.716;9.648;2022-07-29T13:54:16;26.70;1.00
3684;DHT22;1858;48.716;9.648;2022-07-29T13:56:43;26.60;1.00
3684;DHT22;1858;48.716;9.648;2022-07-29T13:59:10;26.10;1.00
3684;DHT22;1858;48.716;9.648;2022-07-29T14:01:37;26.00;1.00
3684;DHT22;1858;48.716;9.648;2022-07-29T14:04:06;26.20;1.00
3684;DHT22;1858;48.716;9.648;2022-07-29T14:06:33;26.50;1.00
3684;DHT22;1858;48.716;9.648;2022-07-29T14:09:00;26.60;1.00
3684;DHT22;1858;48.716;9.648;2022-07-29T14:11:27;26.80;1.00
3684;DHT22;1858;48.716;9.648;2022-07-29T14:13:53;26.90;1.00
3684;DHT22;1858;48.716;9.648;2022-07-29T14:16:20;26.80;1.00
3684;DHT22;1858;48.716;9.648;2022-07-29T14:18:47;26.80;1.00
3684;DHT22;1858;48.716;9.648;2022-07-29T14:21:14;26.80;1.00
3684;DHT22;1858;48.716;9.648;2022-07-29T14:23:41;26.90;1.00
3684;DHT22;1858;48.716;9.648;2022-07-29T14:26:16;26.90;1.00
3684;DHT22;1858;48.716;9.648;2022-07-29T14:28:43;26.90;1.00
3684;DHT22;1858;48.716;9.648;2022-07-29T14:31:10;26.70;1.00
3684;DHT22;1858;48.716;9.648;2022-07-29T14:33:37;26.60;1.00
3684;DHT22;1858;48.716;9.648;2022-07-29T14:36:04;26.50;1.00
3684;DHT22;1858;48.716;9.648;2022-07-29T14:38:31;26.30;1.00
3684;DHT22;1858;48.716;9.648;2022-07-29T14:40:58;26.20;1.00
3684;DHT22;1858;48.716;9.648;2022-07-29T14:43:25;26.10;1.00
3684;DHT22;1858;48.716;9.648;2022-07-29T14:45:52;26.10;1.00
3684;DHT22;1858;48.716;9.648;2022-07-29T14:48:19;25.90;1.00
3684;DHT22;1858;48.716;9.648;2022-07-29T14:50:46;25.90;1.00
3684;DHT22;1858;48.716;9.648;2022-07-29T14:53:12;26.00;1.00
3684;DHT22;1858;48.716;9.648;2022-07-29T14:55:40;26.20;1.00
3684;DHT22;1858;48.716;9.648;2022-07-29T14:58:07;26.30;1.00
3684;DHT22;1858;48.716;9.648;2022-07-29T15:00:35;26.30;1.00
3684;DHT22;1858;48.716;9.648;2022-07-29T15:03:03;26.30;1.00
3684;DHT22;1858;48.716;9.648;2022-07-29T15:05:30;26.40;1.00
3684;DHT22;1858;48.716;9.648;2022-07-29T15:07:57;26.40;1.00
3684;DHT22;1858;48.716;9.648;2022-07-29T15:10:24;26.30;1.00
3684;DHT22;1858;48.716;9.648;2022-07-29T15:12:55;26.40;1.00
3684;DHT22;1858;48.716;9.648;2022-07-29T15:15:22;26.30;1.00
3684;DHT22;1858;48.716;9.648;2022-07-29T15:17:49;26.00;1.00
3684;DHT22;1858;48.716;9.648;2022-07-29T15:20:16;26.00;1.00
3684;DHT22;1858;48.716;9.648;2022-07-29T15:22:43;26.10;1.00
3684;DHT22;1858;48.716;9.648;2022-07-29T15:25:10;26.00;1.00
3684;DHT22;1858;48.716;9.648;2022-07-29T15:27:44;26.00;1.00
3684;DHT22;1858;48.716;9.648;2022-07-29T15:30:11;25.90;1.00
3684;DHT22;1858;48.716;9.648;2022-07-29T15:32:38;26.00;1.00
3684;DHT22;1858;48.716;9.648;2022-07-29T15:35:05;25.90;1.00
3684;DHT22;1858;48.716;9.648;2022-07-29T15:37:32;25.90;1.00
3684;DHT22;1858;48.716;9.648;2022-07-29T15:40:00;26.00;1.00
3684;DHT22;1858;48.716;9.648;2022-07-29T15:42:27;25.80;1.00
3684;DHT22;1858;48.716;9.648;2022-07-29T15:44:55;25.70;1.00
3684;DHT22;1858;48.716;9.648;2022-07-29T15:47:23;25.70;1.00
3684;DHT22;1858;48.716;9.648;2022-07-29T15:49:50;25.50;1.00
3684;DHT22;1858;48.716;9.648;2022-07-29T15:52:19;25.50;1.00
3684;DHT22;1858;48.716;9.648;2022-07-29T15:54:46;25.50;1.00
3684;DHT22;1858;48.716;9.648;2022-07-29T15:57:14;25.40;1.00
3684;DHT22;1858;48.716;9.648;2022-07-29T15:59:42;25.30;1.00
3684;DHT22;1858;48.716;9.648;2022-07-29T16:02:09;25.10;1.00
3684;DHT22;1858;48.716;9.648;2022-07-29T16:04:37;25.00;1.00
3684;DHT22;1858;48.716;9.648;2022-07-29T16:07:05;24.90;1.00
3684;DHT22;1858;48.716;9.648;2022-07-29T16:09:33;24.80;1.00
3684;DHT22;1858;48.716;9.648;2022-07-29T16:12:01;24.70;1.00
3684;DHT22;1858;48.716;9.648;2022-07-29T16:14:28;24.60;1.00
3684;DHT22;1858;48.716;9.648;2022-07-29T16:16:56;24.60;1.00
3684;DHT22;1858;48.716;9.648;2022-07-29T16:19:23;24.60;1.00
3684;DHT22;1858;48.716;9.648;2022-07-29T16:21:51;24.70;1.00
3684;DHT22;1858;48.716;9.648;2022-07-29T16:24:19;24.70;1.00
3684;DHT22;1858;48.716;9.648;2022-07-29T16:26:46;24.80;1.00
3684;DHT22;1858;48.716;9.648;2022-07-29T16:29:15;24.80;1.00
3684;DHT22;1858;48.716;9.648;2022-07-29T16:31:44;24.80;1.00
3684;DHT22;1858;48.716;9.648;2022-07-29T16:34:12;24.80;1.00
3684;DHT22;1858;48.716;9.648;2022-07-29T16:36:40;24.80;1.00
3684;DHT22;1858;48.716;9.648;2022-07-29T16:39:07;25.00;1.00
3684;DHT22;1858;48.716;9.648;2022-07-29T16:41:36;25.10;1.00
3684;DHT22;1858;48.716;9.648;2022-07-29T16:44:04;25.30;1.00
3684;DHT22;1858;48.716;9.648;2022-07-29T16:46:31;25.30;1.00
3684;DHT22;1858;48.716;9.648;2022-07-29T16:49:00;25.30;1.00
3684;DHT22;1858;48.716;9.648;2022-07-29T16:51:28;25.30;1.00
3684;DHT22;1858;48.716;9.648;2022-07-29T16:53:56;25.20;1.00
3684;DHT22;1858;48.716;9.648;2022-07-29T16:56:24;25.20;1.00
3684;DHT22;1858;48.716;9.648;2022-07-29T16:58:51;25.30;1.00
3684;DHT22;1858;48.716;9.648;2022-07-29T17:01:19;25.20;1.00
3684;DHT22;1858;48.716;9.648;2022-07-29T17:03:46;25.20;1.00
3684;DHT22;1858;48.716;9.648;2022-07-29T17:06:33;25.20;1.00
3684;DHT22;1858;48.716;9.648;2022-07-29T17:09:20;25.10;1.00
3684;DHT22;1858;48.716;9.648;2022-07-29T17:11:48;25.10;1.00
3684;DHT22;1858;48.716;9.648;2022-07-29T17:14:39;25.10;1.00
3684;DHT22;1858;48.716;9.648;2022-07-29T17:17:07;25.00;1.00
3684;DHT22;1858;48.716;9.648;2022-07-29T17:19:34;25.10;1.00
3684;DHT22;1858;48.716;9.648;2022-07-29T17:22:03;25.20;1.00
3684;DHT22;1858;48.716;9.648;2022-07-29T17:24:32;25.10;1.00
3684;DHT22;1858;48.716;9.648;2022-07-29T17:27:00;25.10;1.00